createdAt,value
2018-01-12T00:00:53.441Z,1020.19
2018-01-12T00:01:53.434Z,1020.15
2018-01-12T00:02:53.482Z,1020.19
2018-01-12T00:03:53.517Z,1020.19
2018-01-12T00:04:53.528Z,1020.21
2018-01-12T00:05:53.554Z,1020.21
2018-01-12T00:06:53.572Z,1020.26
2018-01-12T00:07:53.592Z,1020.26
2018-01-12T00:08:53.715Z,1020.25
2018-01-12T00:09:53.638Z,1020.29
2018-01-12T00:10:53.707Z,1020.26
2018-01-12T00:11:53.691Z,1020.25
2018-01-12T00:12:53.710Z,1020.27
2018-01-12T00:13:53.731Z,1020.28
2018-01-12T00:14:53.758Z,1020.31
2018-01-12T00:15:53.782Z,1020.25
2018-01-12T00:16:53.808Z,1020.27
2018-01-12T00:17:53.833Z,1020.29
2018-01-12T00:18:54.290Z,1020.23
2018-01-12T00:19:53.885Z,1020.26
2018-01-12T00:20:54.510Z,1020.33
2018-01-12T00:21:54.380Z,1020.31
2018-01-12T00:22:54.388Z,1020.3
2018-01-12T00:23:54.554Z,1020.42
2018-01-12T00:24:54.440Z,1020.43
2018-01-12T00:25:54.655Z,1020.42
2018-01-12T00:26:55.159Z,1020.39
2018-01-12T00:27:55.268Z,1020.41
2018-01-12T00:28:55.212Z,1020.4
2018-01-12T00:29:55.232Z,1020.38
2018-01-12T00:30:55.331Z,1020.43
2018-01-12T00:31:55.410Z,1020.42
2018-01-12T00:32:55.412Z,1020.47
2018-01-12T00:33:55.345Z,1020.45
2018-01-12T00:34:55.550Z,1020.53
2018-01-12T00:35:55.722Z,1020.5
2018-01-12T00:36:55.755Z,1020.55
2018-01-12T00:37:57.016Z,1020.56
2018-01-12T00:38:56.685Z,1020.58
2018-01-12T00:39:56.727Z,1020.63
2018-01-12T00:40:57.102Z,1020.61
2018-01-12T00:41:56.860Z,1020.68
2018-01-12T00:42:57.131Z,1020.66
2018-01-12T00:43:57.174Z,1020.66
2018-01-12T00:44:57.148Z,1020.67
2018-01-12T00:45:56.813Z,1020.69
2018-01-12T00:46:57.275Z,1020.71
2018-01-12T00:47:57.301Z,1020.74
2018-01-12T00:48:56.904Z,1020.73
2018-01-12T00:49:56.897Z,1020.75
2018-01-12T00:50:57.249Z,1020.71
2018-01-12T00:51:57.300Z,1020.73
2018-01-12T00:52:57.519Z,1020.76
2018-01-12T00:53:57.227Z,1020.75
2018-01-12T00:54:57.619Z,1020.71
2018-01-12T00:55:57.604Z,1020.71
2018-01-12T00:56:57.421Z,1020.75
2018-01-12T00:57:57.714Z,1020.73
2018-01-12T00:58:57.312Z,1020.71
2018-01-12T00:59:57.778Z,1020.78
2018-01-12T01:00:57.716Z,1020.78
2018-01-12T01:01:58.027Z,1020.77
2018-01-12T01:02:57.769Z,1020.83
2018-01-12T01:03:57.787Z,1020.81
2018-01-12T01:04:57.761Z,1020.83
2018-01-12T01:05:57.484Z,1020.85
2018-01-12T01:06:57.917Z,1020.84
2018-01-12T01:07:57.518Z,1020.9
2018-01-12T01:08:57.896Z,1020.89
2018-01-12T01:09:57.549Z,1020.9
2018-01-12T01:10:57.658Z,1020.88
2018-01-12T01:11:57.913Z,1020.92
2018-01-12T01:12:57.657Z,1020.94
2018-01-12T01:13:57.651Z,1020.91
2018-01-12T01:14:58.183Z,1020.85
2018-01-12T01:15:58.295Z,1020.85
2018-01-12T01:16:58.142Z,1020.83
2018-01-12T01:17:58.231Z,1020.87
2018-01-12T01:18:58.660Z,1020.84
2018-01-12T01:19:58.669Z,1020.85
2018-01-12T01:20:59.119Z,1020.85
2018-01-12T01:21:59.474Z,1020.82
2018-01-12T01:22:59.173Z,1020.9
2018-01-12T01:23:59.189Z,1020.84
2018-01-12T01:24:59.212Z,1020.87
2018-01-12T01:25:59.236Z,1020.84
2018-01-12T01:26:59.264Z,1020.86
2018-01-12T01:27:59.476Z,1020.92
2018-01-12T01:28:59.483Z,1020.87
2018-01-12T01:29:59.820Z,1020.92
2018-01-12T01:30:59.731Z,1020.94
2018-01-12T01:31:59.906Z,1020.93
2018-01-12T01:32:59.560Z,1020.94
2018-01-12T01:33:59.564Z,1020.98
2018-01-12T01:34:59.923Z,1021
2018-01-12T01:35:59.841Z,1020.98
2018-01-12T01:37:00.222Z,1021.02
2018-01-12T01:38:00.304Z,1021.04
2018-01-12T01:39:00.764Z,1021.07
2018-01-12T01:40:00.895Z,1021.11
2018-01-12T01:41:00.797Z,1021.11
2018-01-12T01:42:01.531Z,1021.12
2018-01-12T01:43:01.548Z,1021.1
2018-01-12T01:44:01.932Z,1021.16
2018-01-12T01:45:01.587Z,1021.17
2018-01-12T01:46:01.591Z,1021.15
2018-01-12T01:47:01.852Z,1021.16
2018-01-12T01:48:01.812Z,1021.15
2018-01-12T01:49:02.062Z,1021.18
2018-01-12T01:50:02.086Z,1021.19
2018-01-12T01:51:02.544Z,1021.19
2018-01-12T01:52:02.554Z,1021.22
2018-01-12T01:53:02.562Z,1021.19
2018-01-12T01:54:02.598Z,1021.16
2018-01-12T01:55:03.291Z,1021.11
2018-01-12T01:56:03.806Z,1021.16
2018-01-12T01:57:04.348Z,1021.21
2018-01-12T01:58:04.296Z,1021.18
2018-01-12T01:59:04.519Z,1021.23
2018-01-12T02:00:19.351Z,1021.24
2018-01-12T02:01:19.308Z,1021.21
2018-01-12T02:02:19.346Z,1021.28
2018-01-12T02:03:19.511Z,1021.26
2018-01-12T02:04:19.668Z,1021.31
2018-01-12T02:05:19.833Z,1021.34
2018-01-12T02:06:19.974Z,1021.27
2018-01-12T02:07:20.012Z,1021.31
2018-01-12T02:08:20.060Z,1021.3
2018-01-12T02:09:20.469Z,1021.3
2018-01-12T02:10:20.332Z,1021.29
2018-01-12T02:11:20.374Z,1021.31
2018-01-12T02:12:20.155Z,1021.34
2018-01-12T02:13:21.186Z,1021.38
2018-01-12T02:14:21.331Z,1021.34
2018-01-12T02:15:21.206Z,1021.41
2018-01-12T02:16:21.396Z,1021.37
2018-01-12T02:17:21.564Z,1021.44
2018-01-12T02:18:21.568Z,1021.4
2018-01-12T02:19:21.381Z,1021.42
2018-01-12T02:20:21.585Z,1021.44
2018-01-12T02:21:21.389Z,1021.41
2018-01-12T02:22:21.573Z,1021.45
2018-01-12T02:23:21.332Z,1021.46
2018-01-12T02:24:21.310Z,1021.53
2018-01-12T02:25:21.573Z,1021.51
2018-01-12T02:26:21.596Z,1021.45
2018-01-12T02:27:21.617Z,1021.44
2018-01-12T02:28:21.651Z,1021.46
2018-01-12T02:29:21.680Z,1021.45
2018-01-12T02:31:36.578Z,1021.44
2018-01-12T02:32:36.979Z,1021.4
2018-01-12T02:33:37.407Z,1021.44
2018-01-12T02:34:37.431Z,1021.46
2018-01-12T02:35:37.848Z,1021.48
2018-01-12T02:36:37.957Z,1021.45
2018-01-12T02:37:37.978Z,1021.46
2018-01-12T02:38:38.082Z,1021.52
2018-01-12T02:39:38.123Z,1021.5
2018-01-12T02:40:38.291Z,1021.51
2018-01-12T02:41:38.688Z,1021.51
2018-01-12T02:42:38.879Z,1021.47
2018-01-12T02:43:39.283Z,1021.51
2018-01-12T02:44:39.351Z,1021.56
2018-01-12T02:45:39.486Z,1021.58
2018-01-12T02:46:39.665Z,1021.56
2018-01-12T02:47:39.686Z,1021.6
2018-01-12T02:48:39.829Z,1021.53
2018-01-12T02:49:39.736Z,1021.57
2018-01-12T02:50:39.894Z,1021.6
2018-01-12T02:51:39.916Z,1021.59
2018-01-12T02:52:40.359Z,1021.64
2018-01-12T02:53:40.402Z,1021.6
2018-01-12T02:54:40.524Z,1021.64
2018-01-12T02:55:40.912Z,1021.64
2018-01-12T02:56:40.916Z,1021.63
2018-01-12T02:57:41.014Z,1021.71
2018-01-12T02:58:41.035Z,1021.78
2018-01-12T02:59:41.129Z,1021.73
2018-01-12T03:00:41.174Z,1021.79
2018-01-12T03:01:41.280Z,1021.8
2018-01-12T03:02:41.361Z,1021.8
2018-01-12T03:03:41.383Z,1021.77
2018-01-12T03:04:41.379Z,1021.78
2018-01-12T03:05:41.430Z,1021.84
2018-01-12T03:06:41.425Z,1021.8
2018-01-12T03:07:41.680Z,1021.82
2018-01-12T03:08:41.674Z,1021.78
2018-01-12T03:09:41.699Z,1021.85
2018-01-12T03:10:41.774Z,1021.84
2018-01-12T03:11:41.830Z,1021.81
2018-01-12T03:12:41.822Z,1021.85
2018-01-12T03:13:41.842Z,1021.82
2018-01-12T03:14:41.890Z,1021.85
2018-01-12T03:15:41.914Z,1021.79
2018-01-12T03:16:41.938Z,1021.82
2018-01-12T03:17:41.940Z,1021.84
2018-01-12T03:18:41.983Z,1021.9
2018-01-12T03:19:42.006Z,1021.85
2018-01-12T03:20:42.036Z,1021.87
2018-01-12T03:21:42.027Z,1021.89
2018-01-12T03:22:42.049Z,1021.91
2018-01-12T03:23:42.333Z,1021.89
2018-01-12T03:24:42.565Z,1021.86
2018-01-12T03:25:42.595Z,1021.93
2018-01-12T03:26:42.610Z,1021.93
2018-01-12T03:27:42.636Z,1021.93
2018-01-12T03:28:42.729Z,1021.9
2018-01-12T03:29:42.729Z,1021.93
2018-01-12T03:30:42.753Z,1021.9
2018-01-12T03:31:42.767Z,1022.03
2018-01-12T03:32:43.215Z,1022.01
2018-01-12T03:33:43.268Z,1022
2018-01-12T03:34:43.310Z,1022.03
2018-01-12T03:35:43.343Z,1021.98
2018-01-12T03:36:43.326Z,1022.01
2018-01-12T03:37:43.354Z,1022.02
2018-01-12T03:38:43.401Z,1021.99
2018-01-12T03:39:43.425Z,1021.99
2018-01-12T03:40:43.429Z,1022.01
2018-01-12T03:41:44.021Z,1022.01
2018-01-12T03:42:43.937Z,1022.02
2018-01-12T03:43:44.065Z,1022
2018-01-12T03:44:43.950Z,1022.05
2018-01-12T03:45:44.000Z,1022.05
2018-01-12T03:46:44.189Z,1022.04
2018-01-12T03:47:44.752Z,1022.09
2018-01-12T03:48:45.029Z,1022.15
2018-01-12T03:49:44.755Z,1022.05
2018-01-12T03:50:44.913Z,1022.02
2018-01-12T03:51:44.666Z,1022.07
2018-01-12T03:52:45.127Z,1022.09
2018-01-12T03:53:45.144Z,1022.06
2018-01-12T03:54:45.188Z,1022.08
2018-01-12T03:55:45.226Z,1022.12
2018-01-12T03:56:45.367Z,1022.11
2018-01-12T03:57:45.692Z,1022.04
2018-01-12T03:58:45.746Z,1022.04
2018-01-12T03:59:45.726Z,1022.03
2018-01-12T04:00:45.764Z,1022.04
2018-01-12T04:01:45.770Z,1022.04
2018-01-12T04:02:46.123Z,1022.02
2018-01-12T04:03:46.596Z,1022.1
2018-01-12T04:04:46.526Z,1022.15
2018-01-12T04:05:46.521Z,1022.13
2018-01-12T04:06:46.541Z,1022.17
2018-01-12T04:07:46.561Z,1022.16
2018-01-12T04:08:46.792Z,1022.21
2018-01-12T04:09:47.129Z,1022.22
2018-01-12T04:10:47.148Z,1022.22
2018-01-12T04:11:47.452Z,1022.22
2018-01-12T04:12:47.173Z,1022.22
2018-01-12T04:13:47.188Z,1022.16
2018-01-12T04:14:47.208Z,1022.11
2018-01-12T04:15:47.523Z,1022.12
2018-01-12T04:16:47.392Z,1022.14
2018-01-12T04:17:47.402Z,1022.12
2018-01-12T04:18:47.882Z,1022.12
2018-01-12T04:19:47.449Z,1022.14
2018-01-12T04:20:47.497Z,1022.19
2018-01-12T04:21:47.523Z,1022.17
2018-01-12T04:22:47.589Z,1022.21
2018-01-12T04:23:47.540Z,1022.25
2018-01-12T04:24:47.565Z,1022.24
2018-01-12T04:25:47.592Z,1022.26
2018-01-12T04:26:47.671Z,1022.24
2018-01-12T04:27:47.655Z,1022.23
2018-01-12T04:28:47.707Z,1022.23
2018-01-12T04:29:47.669Z,1022.23
2018-01-12T04:30:47.724Z,1022.27
2018-01-12T04:31:48.024Z,1022.22
2018-01-12T04:32:48.028Z,1022.2
2018-01-12T04:33:48.234Z,1022.24
2018-01-12T04:34:48.289Z,1022.23
2018-01-12T04:35:48.278Z,1022.28
2018-01-12T04:36:48.314Z,1022.24
2018-01-12T04:37:48.367Z,1022.25
2018-01-12T04:38:48.355Z,1022.21
2018-01-12T04:39:48.378Z,1022.23
2018-01-12T04:40:48.532Z,1022.25
2018-01-12T04:41:48.482Z,1022.27
2018-01-12T04:42:48.460Z,1022.3
2018-01-12T04:43:48.832Z,1022.29
2018-01-12T04:44:48.516Z,1022.34
2018-01-12T04:45:48.743Z,1022.38
2018-01-12T04:46:48.571Z,1022.44
2018-01-12T04:47:48.575Z,1022.45
2018-01-12T04:48:49.010Z,1022.41
2018-01-12T04:49:48.922Z,1022.48
2018-01-12T04:50:48.685Z,1022.52
2018-01-12T04:51:48.762Z,1022.56
2018-01-12T04:52:48.732Z,1022.48
2018-01-12T04:53:48.875Z,1022.43
2018-01-12T04:54:49.224Z,1022.56
2018-01-12T04:55:48.797Z,1022.51
2018-01-12T04:56:49.013Z,1022.58
2018-01-12T04:57:49.175Z,1022.57
2018-01-12T04:58:49.044Z,1022.56
2018-01-12T04:59:49.227Z,1022.55
2018-01-12T05:00:48.850Z,1022.62
2018-01-12T05:01:48.916Z,1022.52
2018-01-12T05:02:48.897Z,1022.63
2018-01-12T05:03:48.987Z,1022.59
2018-01-12T05:04:49.204Z,1022.59
2018-01-12T05:05:49.128Z,1022.6
2018-01-12T05:06:49.210Z,1022.52
2018-01-12T05:07:49.368Z,1022.58
2018-01-12T05:08:49.551Z,1022.52
2018-01-12T05:09:49.276Z,1022.52
2018-01-12T05:10:49.633Z,1022.52
2018-01-12T05:11:49.276Z,1022.53
2018-01-12T05:12:49.332Z,1022.58
2018-01-12T05:13:49.323Z,1022.55
2018-01-12T05:14:49.492Z,1022.52
2018-01-12T05:15:49.350Z,1022.56
2018-01-12T05:16:49.395Z,1022.6
2018-01-12T05:17:49.468Z,1022.63
2018-01-12T05:18:49.567Z,1022.63
2018-01-12T05:19:49.461Z,1022.58
2018-01-12T05:20:49.652Z,1022.63
2018-01-12T05:21:49.498Z,1022.57
2018-01-12T05:22:49.872Z,1022.62
2018-01-12T05:23:49.959Z,1022.62
2018-01-12T05:24:50.042Z,1022.67
2018-01-12T05:25:50.113Z,1022.62
2018-01-12T05:26:49.650Z,1022.61
2018-01-12T05:27:49.669Z,1022.58
2018-01-12T05:28:49.701Z,1022.61
2018-01-12T05:29:49.715Z,1022.65
2018-01-12T05:30:50.134Z,1022.61
2018-01-12T05:31:50.606Z,1022.63
2018-01-12T05:32:50.685Z,1022.66
2018-01-12T05:33:50.826Z,1022.67
2018-01-12T05:34:50.807Z,1022.71
2018-01-12T05:35:50.860Z,1022.65
2018-01-12T05:36:50.891Z,1022.71
2018-01-12T05:37:51.014Z,1022.67
2018-01-12T05:38:50.911Z,1022.72
2018-01-12T05:39:50.950Z,1022.66
2018-01-12T05:40:51.391Z,1022.7
2018-01-12T05:41:51.689Z,1022.65
2018-01-12T05:42:51.733Z,1022.69
2018-01-12T05:43:51.781Z,1022.69
2018-01-12T05:44:51.778Z,1022.7
2018-01-12T05:45:52.339Z,1022.77
2018-01-12T05:46:51.810Z,1022.73
2018-01-12T05:47:52.046Z,1022.8
2018-01-12T05:48:52.101Z,1022.84
2018-01-12T05:49:52.181Z,1022.78
2018-01-12T05:50:52.249Z,1022.84
2018-01-12T05:51:52.795Z,1022.79
2018-01-12T05:52:52.695Z,1022.8
2018-01-12T05:53:52.696Z,1022.79
2018-01-12T05:54:52.901Z,1022.82
2018-01-12T05:55:52.945Z,1022.87
2018-01-12T05:56:52.963Z,1022.9
2018-01-12T05:57:52.962Z,1022.91
2018-01-12T05:58:52.982Z,1022.92
2018-01-12T05:59:53.456Z,1022.92
2018-01-12T06:00:53.475Z,1022.93
2018-01-12T06:01:53.503Z,1022.98
2018-01-12T06:02:53.523Z,1022.93
2018-01-12T06:03:53.552Z,1022.98
2018-01-12T06:04:53.589Z,1022.99
2018-01-12T06:05:53.610Z,1022.98
2018-01-12T06:06:53.613Z,1023
2018-01-12T06:07:53.651Z,1023.04
2018-01-12T06:08:53.683Z,1023
2018-01-12T06:09:53.713Z,1023.08
2018-01-12T06:10:53.767Z,1023.03
2018-01-12T06:11:53.772Z,1023.06
2018-01-12T06:12:53.771Z,1023.07
2018-01-12T06:13:54.154Z,1023.07
2018-01-12T06:14:54.186Z,1023.13
2018-01-12T06:15:54.263Z,1023.15
2018-01-12T06:16:54.192Z,1023.13
2018-01-12T06:17:54.245Z,1023.19
2018-01-12T06:18:54.388Z,1023.17
2018-01-12T06:19:54.340Z,1023.15
2018-01-12T06:20:54.300Z,1023.2
2018-01-12T06:21:54.304Z,1023.14
2018-01-12T06:22:54.600Z,1023.16
2018-01-12T06:23:54.860Z,1023.16
2018-01-12T06:24:54.684Z,1023.17
2018-01-12T06:25:54.656Z,1023.21
2018-01-12T06:26:55.171Z,1023.21
2018-01-12T06:27:55.750Z,1023.22
2018-01-12T06:28:55.750Z,1023.27
2018-01-12T06:29:55.763Z,1023.24
2018-01-12T06:30:55.981Z,1023.23
2018-01-12T06:31:55.943Z,1023.28
2018-01-12T06:32:57.486Z,1023.3
2018-01-12T06:33:57.145Z,1023.31
2018-01-12T06:34:57.063Z,1023.33
2018-01-12T06:35:57.076Z,1023.37
2018-01-12T06:36:57.394Z,1023.4
2018-01-12T06:37:57.711Z,1023.36
2018-01-12T06:38:58.117Z,1023.39
2018-01-12T06:39:58.091Z,1023.41
2018-01-12T06:40:58.115Z,1023.39
2018-01-12T06:41:58.327Z,1023.44
2018-01-12T06:42:58.499Z,1023.47
2018-01-12T06:43:58.178Z,1023.48
2018-01-12T06:44:58.660Z,1023.56
2018-01-12T06:45:58.658Z,1023.52
2018-01-12T06:46:58.668Z,1023.54
2018-01-12T06:47:58.754Z,1023.54
2018-01-12T06:48:58.750Z,1023.52
2018-01-12T06:49:58.770Z,1023.52
2018-01-12T06:50:58.773Z,1023.57
2018-01-12T06:51:59.162Z,1023.58
2018-01-12T06:52:59.007Z,1023.57
2018-01-12T06:53:58.998Z,1023.59
2018-01-12T06:54:59.050Z,1023.65
2018-01-12T06:55:59.377Z,1023.66
2018-01-12T06:56:59.468Z,1023.69
2018-01-12T06:57:59.703Z,1023.67
2018-01-12T06:58:59.707Z,1023.71
2018-01-12T07:00:00.113Z,1023.71
2018-01-12T07:01:00.300Z,1023.73
2018-01-12T07:02:00.864Z,1023.71
2018-01-12T07:03:00.822Z,1023.79
2018-01-12T07:04:01.155Z,1023.73
2018-01-12T07:05:01.068Z,1023.78
2018-01-12T07:06:01.165Z,1023.81
2018-01-12T07:07:00.918Z,1023.81
2018-01-12T07:08:01.387Z,1023.81
2018-01-12T07:09:01.492Z,1023.79
2018-01-12T07:10:01.462Z,1023.84
2018-01-12T07:11:01.466Z,1023.83
2018-01-12T07:12:01.480Z,1023.78
2018-01-12T07:13:01.733Z,1023.85
2018-01-12T07:14:01.852Z,1023.84
2018-01-12T07:15:01.851Z,1023.91
2018-01-12T07:16:02.019Z,1023.85
2018-01-12T07:17:02.012Z,1023.83
2018-01-12T07:18:02.432Z,1023.89
2018-01-12T07:19:02.581Z,1023.93
2018-01-12T07:20:02.521Z,1023.92
2018-01-12T07:21:02.686Z,1023.91
2018-01-12T07:22:02.696Z,1024
2018-01-12T07:23:02.890Z,1023.99
2018-01-12T07:24:02.560Z,1023.98
2018-01-12T07:25:02.684Z,1023.98
2018-01-12T07:26:02.617Z,1024.04
2018-01-12T07:27:02.823Z,1023.98
2018-01-12T07:28:02.811Z,1024.09
2018-01-12T07:29:02.908Z,1024.07
2018-01-12T07:30:02.864Z,1024.12
2018-01-12T07:31:02.890Z,1024.07
2018-01-12T07:32:03.464Z,1024.11
2018-01-12T07:33:03.376Z,1024.14
2018-01-12T07:34:03.727Z,1024.12
2018-01-12T07:35:03.743Z,1024.13
2018-01-12T07:36:03.793Z,1024.15
2018-01-12T07:37:04.136Z,1024.11
2018-01-12T07:38:04.553Z,1024.21
2018-01-12T07:39:04.485Z,1024.18
2018-01-12T07:40:04.945Z,1024.17
2018-01-12T07:41:04.624Z,1024.12
2018-01-12T07:42:04.640Z,1024.22
2018-01-12T07:43:04.716Z,1024.22
2018-01-12T07:44:04.923Z,1024.26
2018-01-12T07:45:04.736Z,1024.21
2018-01-12T07:46:05.305Z,1024.23
2018-01-12T07:47:04.762Z,1024.26
2018-01-12T07:48:04.800Z,1024.24
2018-01-12T07:49:05.070Z,1024.27
2018-01-12T07:50:05.087Z,1024.32
2018-01-12T07:51:05.130Z,1024.3
2018-01-12T07:52:05.608Z,1024.36
2018-01-12T07:53:05.598Z,1024.34
2018-01-12T07:54:05.748Z,1024.35
2018-01-12T07:55:06.019Z,1024.37
2018-01-12T07:56:06.169Z,1024.33
2018-01-12T07:57:06.180Z,1024.34
2018-01-12T07:58:06.195Z,1024.4
2018-01-12T07:59:06.224Z,1024.42
2018-01-12T08:01:06.679Z,1024.44
2018-01-12T08:02:06.668Z,1024.4
2018-01-12T08:03:06.285Z,1024.38
2018-01-12T08:04:06.353Z,1024.4
2018-01-12T08:05:06.485Z,1024.46
2018-01-12T08:06:06.861Z,1024.41
2018-01-12T08:07:07.090Z,1024.4
2018-01-12T08:08:06.936Z,1024.45
2018-01-12T08:09:06.944Z,1024.42
2018-01-12T08:10:06.970Z,1024.45
2018-01-12T08:11:07.411Z,1024.49
2018-01-12T08:12:07.666Z,1024.5
2018-01-12T08:13:07.636Z,1024.57
2018-01-12T08:14:07.653Z,1024.51
2018-01-12T08:15:08.031Z,1024.55
2018-01-12T08:16:08.072Z,1024.58
2018-01-12T08:17:08.894Z,1024.55
2018-01-12T08:18:08.842Z,1024.51
2018-01-12T08:19:08.873Z,1024.5
2018-01-12T08:20:08.825Z,1024.54
2018-01-12T08:21:08.844Z,1024.58
2018-01-12T08:22:08.999Z,1024.55
2018-01-12T08:23:09.208Z,1024.49
2018-01-12T08:24:09.219Z,1024.47
2018-01-12T08:25:09.227Z,1024.55
2018-01-12T08:26:09.310Z,1024.55
2018-01-12T08:27:09.534Z,1024.54
2018-01-12T08:28:09.555Z,1024.47
2018-01-12T08:29:09.559Z,1024.47
2018-01-12T08:30:09.741Z,1024.48
2018-01-12T08:31:09.782Z,1024.58
2018-01-12T08:32:09.814Z,1024.55
2018-01-12T08:33:09.933Z,1024.59
2018-01-12T08:34:09.852Z,1024.58
2018-01-12T08:35:09.840Z,1024.67
2018-01-12T08:36:09.872Z,1024.68
2018-01-12T08:37:10.190Z,1024.66
2018-01-12T08:38:10.216Z,1024.7
2018-01-12T08:39:10.240Z,1024.67
2018-01-12T08:40:11.323Z,1024.65
2018-01-12T08:41:10.807Z,1024.66
2018-01-12T08:42:10.861Z,1024.7
2018-01-12T08:43:11.219Z,1024.7
2018-01-12T08:44:10.856Z,1024.71
2018-01-12T08:45:11.233Z,1024.76
2018-01-12T08:46:11.292Z,1024.79
2018-01-12T08:47:11.327Z,1024.73
2018-01-12T08:48:11.327Z,1024.8
2018-01-12T08:49:11.812Z,1024.79
2018-01-12T08:50:11.825Z,1024.8
2018-01-12T08:51:12.238Z,1024.85
2018-01-12T08:52:12.274Z,1024.83
2018-01-12T08:53:12.368Z,1024.8
2018-01-12T08:54:12.374Z,1024.86
2018-01-12T08:55:12.678Z,1024.86
2018-01-12T08:56:12.556Z,1024.89
2018-01-12T08:57:12.568Z,1024.88
2018-01-12T08:58:12.975Z,1024.95
2018-01-12T08:59:13.038Z,1024.88
2018-01-12T09:01:18.074Z,1025.01
2018-01-12T09:02:18.168Z,1025.02
2018-01-12T09:03:18.645Z,1025.06
2018-01-12T09:04:18.719Z,1024.97
2018-01-12T09:05:18.675Z,1025.09
2018-01-12T09:06:18.990Z,1025.08
2018-01-12T09:07:19.064Z,1025.03
2018-01-12T09:08:19.249Z,1025.04
2018-01-12T09:09:19.102Z,1025.09
2018-01-12T09:10:19.188Z,1025.07
2018-01-12T09:11:19.156Z,1025.06
2018-01-12T09:12:19.334Z,1025.08
2018-01-12T09:13:19.194Z,1025.13
2018-01-12T09:14:19.233Z,1025.1
2018-01-12T09:15:19.228Z,1025.09
2018-01-12T09:16:19.602Z,1025.08
2018-01-12T09:17:19.322Z,1025.1
2018-01-12T09:18:19.396Z,1025.15
2018-01-12T09:19:19.664Z,1025.13
2018-01-12T09:20:19.398Z,1025.16
2018-01-12T09:21:19.412Z,1025.17
2018-01-12T09:22:19.672Z,1025.18
2018-01-12T09:23:19.694Z,1025.23
2018-01-12T09:24:19.531Z,1025.24
2018-01-12T09:25:19.475Z,1025.22
2018-01-12T09:26:19.533Z,1025.27
2018-01-12T09:27:19.525Z,1025.32
2018-01-12T09:28:19.959Z,1025.28
2018-01-12T09:29:20.010Z,1025.26
2018-01-12T09:30:20.015Z,1025.27
2018-01-12T09:31:19.607Z,1025.33
2018-01-12T09:32:19.628Z,1025.32
2018-01-12T09:33:19.688Z,1025.23
2018-01-12T09:34:19.677Z,1025.31
2018-01-12T09:35:19.698Z,1025.32
2018-01-12T09:36:19.764Z,1025.31
2018-01-12T09:37:20.282Z,1025.37
2018-01-12T09:38:20.308Z,1025.31
2018-01-12T09:39:20.377Z,1025.34
2018-01-12T09:40:20.494Z,1025.32
2018-01-12T09:41:20.813Z,1025.37
2018-01-12T09:42:20.844Z,1025.42
2018-01-12T09:43:20.845Z,1025.37
2018-01-12T09:44:21.057Z,1025.39
2018-01-12T09:45:21.156Z,1025.43
2018-01-12T09:46:21.035Z,1025.39
2018-01-12T09:47:21.058Z,1025.37
2018-01-12T09:48:21.056Z,1025.38
2018-01-12T09:49:21.128Z,1025.42
2018-01-12T09:50:21.138Z,1025.34
2018-01-12T09:51:21.205Z,1025.37
2018-01-12T09:52:21.140Z,1025.38
2018-01-12T09:53:21.178Z,1025.43
2018-01-12T09:54:26.574Z,1025.45
2018-01-12T09:55:26.466Z,1025.41
2018-01-12T09:56:31.961Z,1025.42
2018-01-12T09:57:32.476Z,1025.4
2018-01-12T09:58:31.972Z,1025.44
2018-01-12T09:59:32.029Z,1025.41
2018-01-12T10:00:32.019Z,1025.46
2018-01-12T10:01:32.447Z,1025.43
2018-01-12T10:02:32.457Z,1025.43
2018-01-12T10:03:32.940Z,1025.42
2018-01-12T10:04:32.974Z,1025.48
2018-01-12T10:05:32.994Z,1025.45
2018-01-12T10:06:33.051Z,1025.47
2018-01-12T10:07:33.038Z,1025.48
2018-01-12T10:08:34.332Z,1025.48
2018-01-12T10:09:34.230Z,1025.46
2018-01-12T10:10:34.109Z,1025.47
2018-01-12T10:11:34.390Z,1025.46
2018-01-12T10:12:34.001Z,1025.5
2018-01-12T10:13:34.337Z,1025.52
2018-01-12T10:14:34.401Z,1025.49
2018-01-12T10:15:34.450Z,1025.4
2018-01-12T10:16:34.788Z,1025.49
2018-01-12T10:17:34.433Z,1025.46
2018-01-12T10:18:34.818Z,1025.48
2018-01-12T10:19:34.547Z,1025.51
2018-01-12T10:20:34.950Z,1025.49
2018-01-12T10:21:34.702Z,1025.52
2018-01-12T10:22:34.597Z,1025.49
2018-01-12T10:23:34.553Z,1025.48
2018-01-12T10:24:34.782Z,1025.52
2018-01-12T10:25:34.788Z,1025.6
2018-01-12T10:26:34.823Z,1025.53
2018-01-12T10:27:34.880Z,1025.54
2018-01-12T10:28:34.869Z,1025.52
2018-01-12T10:29:34.906Z,1025.51
2018-01-12T10:30:35.026Z,1025.53
2018-01-12T10:31:35.040Z,1025.5
2018-01-12T10:32:35.061Z,1025.5
2018-01-12T10:33:35.083Z,1025.58
2018-01-12T10:34:35.111Z,1025.52
2018-01-12T10:35:35.144Z,1025.58
2018-01-12T10:36:35.162Z,1025.56
2018-01-12T10:37:35.346Z,1025.54
2018-01-12T10:38:35.759Z,1025.55
2018-01-12T10:39:36.064Z,1025.57
2018-01-12T10:40:35.807Z,1025.59
2018-01-12T10:41:35.807Z,1025.59
2018-01-12T10:42:36.207Z,1025.6
2018-01-12T10:43:36.219Z,1025.57
2018-01-12T10:44:36.482Z,1025.54
2018-01-12T10:45:36.783Z,1025.56
2018-01-12T10:46:36.937Z,1025.56
2018-01-12T10:47:36.961Z,1025.58
2018-01-12T10:48:36.979Z,1025.56
2018-01-12T10:49:37.009Z,1025.57
2018-01-12T10:50:37.003Z,1025.6
2018-01-12T10:51:37.186Z,1025.54
2018-01-12T10:52:37.040Z,1025.62
2018-01-12T10:53:37.085Z,1025.61
2018-01-12T10:54:36.934Z,1025.59
2018-01-12T10:55:36.985Z,1025.54
2018-01-12T10:56:37.286Z,1025.54
2018-01-12T10:57:37.047Z,1025.65
2018-01-12T10:58:37.172Z,1025.73
2018-01-12T10:59:36.833Z,1025.67
2018-01-12T11:00:37.256Z,1025.69
2018-01-12T11:01:36.882Z,1025.61
2018-01-12T11:02:37.186Z,1025.68
2018-01-12T11:03:37.311Z,1025.69
2018-01-12T11:04:36.982Z,1025.73
2018-01-12T11:05:37.118Z,1025.71
2018-01-12T11:06:37.306Z,1025.8
2018-01-12T11:07:36.989Z,1025.72
2018-01-12T11:08:37.197Z,1025.7
2018-01-12T11:09:37.174Z,1025.71
2018-01-12T11:10:37.300Z,1025.77
2018-01-12T11:11:37.505Z,1025.73
2018-01-12T11:12:37.516Z,1025.78
2018-01-12T11:13:37.703Z,1025.79
2018-01-12T11:14:37.309Z,1025.83
2018-01-12T11:15:37.317Z,1025.79
2018-01-12T11:16:37.286Z,1025.76
2018-01-12T11:17:37.283Z,1025.83
2018-01-12T11:18:37.622Z,1025.83
2018-01-12T11:19:37.404Z,1025.82
2018-01-12T11:20:37.676Z,1025.86
2018-01-12T11:21:37.326Z,1025.8
2018-01-12T11:22:37.305Z,1025.81
2018-01-12T11:23:37.331Z,1025.85
2018-01-12T11:24:37.374Z,1025.84
2018-01-12T11:25:37.573Z,1025.8
2018-01-12T11:26:37.417Z,1025.87
2018-01-12T11:27:37.429Z,1025.87
2018-01-12T11:28:37.474Z,1025.87
2018-01-12T11:29:37.462Z,1025.82
2018-01-12T11:30:37.603Z,1025.85
2018-01-12T11:31:37.614Z,1025.83
2018-01-12T11:32:37.934Z,1025.84
2018-01-12T11:33:37.939Z,1025.83
2018-01-12T11:34:38.407Z,1025.84
2018-01-12T11:35:38.414Z,1025.82
2018-01-12T11:36:38.436Z,1025.81
2018-01-12T11:37:38.833Z,1025.82
2018-01-12T11:38:39.349Z,1025.84
2018-01-12T11:39:39.342Z,1025.94
2018-01-12T11:40:39.363Z,1025.81
2018-01-12T11:41:39.411Z,1025.91
2018-01-12T11:42:39.432Z,1025.82
2018-01-12T11:43:39.465Z,1025.85
2018-01-12T11:44:39.484Z,1025.84
2018-01-12T11:45:39.489Z,1025.87
2018-01-12T11:46:40.024Z,1025.89
2018-01-12T11:47:39.892Z,1025.85
2018-01-12T11:48:39.590Z,1025.81
2018-01-12T11:49:39.615Z,1025.82
2018-01-12T11:50:39.784Z,1025.82
2018-01-12T11:51:39.798Z,1025.83
2018-01-12T11:52:39.844Z,1025.84
2018-01-12T11:53:39.887Z,1025.78
2018-01-12T11:54:40.024Z,1025.82
2018-01-12T11:55:40.095Z,1025.78
2018-01-12T11:56:40.090Z,1025.83
2018-01-12T11:57:40.100Z,1025.84
2018-01-12T11:58:40.108Z,1025.83
2018-01-12T11:59:40.720Z,1025.75
2018-01-12T12:00:40.644Z,1025.85
2018-01-12T12:01:41.100Z,1025.79
2018-01-12T12:02:40.952Z,1025.82
2018-01-12T12:03:41.118Z,1025.8
2018-01-12T12:04:40.725Z,1025.83
2018-01-12T12:05:40.762Z,1025.85
2018-01-12T12:06:40.810Z,1025.84
2018-01-12T12:07:40.803Z,1025.88
2018-01-12T12:08:40.815Z,1025.85
2018-01-12T12:09:40.875Z,1025.85
2018-01-12T12:10:41.253Z,1025.89
2018-01-12T12:11:41.050Z,1025.89
2018-01-12T12:12:40.921Z,1025.89
2018-01-12T12:13:41.352Z,1025.96